sensor_id;sensor_type;location;lat;lon;timestamp;P1;durP1;ratioP1;P2;durP2;ratioP2
4821;SDS011;2425;47.794;13.068;2023-07-22T00:00:01;1.50;;;1.50;;
4821;SDS011;2425;47.794;13.068;2023-07-22T00:02:30;1.60;;;1.60;;
4821;SDS011;2425;47.794;13.068;2023-07-22T00:04:57;1.93;;;1.50;;
4821;SDS011;2425;47.794;13.068;2023-07-22T00:07:24;1.23;;;1.23;;
4821;SDS011;2425;47.794;13.068;2023-07-22T00:09:53;1.70;;;1.60;;
4821;SDS011;2425;47.794;13.068;2023-07-22T00:12:19;1.43;;;1.33;;
4821;SDS011;2425;47.794;13.068;2023-07-22T00:14:50;1.73;;;1.63;;
4821;SDS011;2425;47.794;13.068;2023-07-22T00:17:17;1.87;;;1.77;;
4821;SDS011;2425;47.794;13.068;2023-07-22T00:19:46;1.50;;;1.50;;
4821;SDS011;2425;47.794;13.068;2023-07-22T00:22:12;1.53;;;1.43;;
4821;SDS011;2425;47.794;13.068;2023-07-22T00:24:40;1.67;;;1.57;;
4821;SDS011;2425;47.794;13.068;2023-07-22T00:27:08;1.30;;;1.30;;
4821;SDS011;2425;47.794;13.068;2023-07-22T00:29:34;1.50;;;1.40;;
4821;SDS011;2425;47.794;13.068;2023-07-22T00:32:01;1.27;;;1.23;;
4821;SDS011;2425;47.794;13.068;2023-07-22T00:34:28;2.00;;;1.60;;
4821;SDS011;2425;47.794;13.068;2023-07-22T00:36:55;1.33;;;1.33;;
4821;SDS011;2425;47.794;13.068;2023-07-22T00:39:21;1.40;;;1.40;;
4821;SDS011;2425;47.794;13.068;2023-07-22T00:41:48;1.40;;;1.40;;
4821;SDS011;2425;47.794;13.068;2023-07-22T00:44:16;1.50;;;1.40;;
4821;SDS011;2425;47.794;13.068;2023-07-22T00:46:43;1.33;;;1.33;;
4821;SDS011;2425;47.794;13.068;2023-07-22T00:49:10;1.40;;;1.40;;
4821;SDS011;2425;47.794;13.068;2023-07-22T00:51:38;1.40;;;1.40;;
4821;SDS011;2425;47.794;13.068;2023-07-22T00:54:05;1.60;;;1.50;;
4821;SDS011;2425;47.794;13.068;2023-07-22T00:56:32;2.10;;;1.80;;
4821;SDS011;2425;47.794;13.068;2023-07-22T00:59:00;1.70;;;1.60;;
4821;SDS011;2425;47.794;13.068;2023-07-22T01:01:28;1.50;;;1.50;;
4821;SDS011;2425;47.794;13.068;2023-07-22T01:03:55;1.50;;;1.50;;
4821;SDS011;2425;47.794;13.068;2023-07-22T01:06:21;1.60;;;1.50;;
4821;SDS011;2425;47.794;13.068;2023-07-22T01:08:49;1.50;;;1.50;;
4821;SDS011;2425;47.794;13.068;2023-07-22T01:11:16;4.10;;;1.27;;
4821;SDS011;2425;47.794;13.068;2023-07-22T01:13:43;1.70;;;1.30;;
4821;SDS011;2425;47.794;13.068;2023-07-22T01:16:09;1.43;;;1.43;;
4821;SDS011;2425;47.794;13.068;2023-07-22T01:18:38;1.37;;;1.37;;
4821;SDS011;2425;47.794;13.068;2023-07-22T01:21:05;1.50;;;1.50;;
4821;SDS011;2425;47.794;13.068;2023-07-22T01:23:34;2.20;;;1.70;;
4821;SDS011;2425;47.794;13.068;2023-07-22T01:26:01;1.63;;;1.63;;
4821;SDS011;2425;47.794;13.068;2023-07-22T01:28:28;1.40;;;1.37;;
4821;SDS011;2425;47.794;13.068;2023-07-22T01:30:55;1.57;;;1.50;;
4821;SDS011;2425;47.794;13.068;2023-07-22T01:33:22;1.40;;;1.40;;
4821;SDS011;2425;47.794;13.068;2023-07-22T01:35:48;1.60;;;1.57;;
4821;SDS011;2425;47.794;13.068;2023-07-22T01:38:15;1.60;;;1.50;;
4821;SDS011;2425;47.794;13.068;2023-07-22T01:40:43;1.60;;;1.50;;
4821;SDS011;2425;47.794;13.068;2023-07-22T01:43:10;1.57;;;1.57;;
4821;SDS011;2425;47.794;13.068;2023-07-22T01:45:36;1.50;;;1.50;;
4821;SDS011;2425;47.794;13.068;2023-07-22T01:48:04;1.47;;;1.47;;
4821;SDS011;2425;47.794;13.068;2023-07-22T01:50:31;2.00;;;1.90;;
4821;SDS011;2425;47.794;13.068;2023-07-22T01:52:58;1.60;;;1.60;;
4821;SDS011;2425;47.794;13.068;2023-07-22T01:55:25;1.40;;;1.40;;
4821;SDS011;2425;47.794;13.068;2023-07-22T01:57:53;1.30;;;1.20;;
4821;SDS011;2425;47.794;13.068;2023-07-22T02:00:21;1.33;;;1.33;;
4821;SDS011;2425;47.794;13.068;2023-07-22T02:02:47;1.40;;;1.40;;
4821;SDS011;2425;47.794;13.068;2023-07-22T02:05:14;1.67;;;1.57;;
4821;SDS011;2425;47.794;13.068;2023-07-22T02:07:41;1.33;;;1.33;;
4821;SDS011;2425;47.794;13.068;2023-07-22T02:10:08;1.30;;;1.30;;
4821;SDS011;2425;47.794;13.068;2023-07-22T02:12:35;1.40;;;1.40;;
4821;SDS011;2425;47.794;13.068;2023-07-22T02:15:04;2.20;;;1.60;;
4821;SDS011;2425;47.794;13.068;2023-07-22T02:17:32;1.40;;;1.40;;
4821;SDS011;2425;47.794;13.068;2023-07-22T02:19:58;1.60;;;1.60;;
4821;SDS011;2425;47.794;13.068;2023-07-22T02:22:25;1.50;;;1.50;;
4821;SDS011;2425;47.794;13.068;2023-07-22T02:24:52;1.40;;;1.40;;
4821;SDS011;2425;47.794;13.068;2023-07-22T02:27:19;1.30;;;1.30;;
4821;SDS011;2425;47.794;13.068;2023-07-22T02:29:45;1.70;;;1.70;;
4821;SDS011;2425;47.794;13.068;2023-07-22T02:32:13;1.20;;;1.20;;
4821;SDS011;2425;47.794;13.068;2023-07-22T02:34:40;1.37;;;1.37;;
4821;SDS011;2425;47.794;13.068;2023-07-22T02:37:07;1.60;;;1.50;;
4821;SDS011;2425;47.794;13.068;2023-07-22T02:39:33;1.40;;;1.40;;
4821;SDS011;2425;47.794;13.068;2023-07-22T02:42:00;1.20;;;1.20;;
4821;SDS011;2425;47.794;13.068;2023-07-22T02:44:27;1.57;;;1.47;;
4821;SDS011;2425;47.794;13.068;2023-07-22T02:46:53;1.77;;;1.30;;
4821;SDS011;2425;47.794;13.068;2023-07-22T02:49:21;1.40;;;1.40;;
4821;SDS011;2425;47.794;13.068;2023-07-22T02:51:49;1.27;;;1.17;;
4821;SDS011;2425;47.794;13.068;2023-07-22T02:54:15;1.47;;;1.37;;
4821;SDS011;2425;47.794;13.068;2023-07-22T02:56:42;2.60;;;1.57;;
4821;SDS011;2425;47.794;13.068;2023-07-22T02:59:09;2.77;;;1.30;;
4821;SDS011;2425;47.794;13.068;2023-07-22T03:01:36;1.40;;;1.30;;
4821;SDS011;2425;47.794;13.068;2023-07-22T03:04:04;1.17;;;1.17;;
4821;SDS011;2425;47.794;13.068;2023-07-22T03:06:32;1.70;;;1.60;;
4821;SDS011;2425;47.794;13.068;2023-07-22T03:08:59;1.53;;;1.53;;
4821;SDS011;2425;47.794;13.068;2023-07-22T03:11:26;1.17;;;1.17;;
4821;SDS011;2425;47.794;13.068;2023-07-22T03:13:52;1.37;;;1.37;;
4821;SDS011;2425;47.794;13.068;2023-07-22T03:16:19;1.77;;;1.67;;
4821;SDS011;2425;47.794;13.068;2023-07-22T03:18:46;1.20;;;1.20;;
4821;SDS011;2425;47.794;13.068;2023-07-22T03:21:13;1.57;;;1.57;;
4821;SDS011;2425;47.794;13.068;2023-07-22T03:23:41;3.40;;;1.40;;
4821;SDS011;2425;47.794;13.068;2023-07-22T03:26:08;1.20;;;1.20;;
4821;SDS011;2425;47.794;13.068;2023-07-22T03:28:34;1.50;;;1.50;;
4821;SDS011;2425;47.794;13.068;2023-07-22T03:31:01;1.60;;;1.50;;
4821;SDS011;2425;47.794;13.068;2023-07-22T03:33:29;2.03;;;1.93;;
4821;SDS011;2425;47.794;13.068;2023-07-22T03:35:56;1.53;;;1.53;;
4821;SDS011;2425;47.794;13.068;2023-07-22T03:38:22;1.37;;;1.37;;
4821;SDS011;2425;47.794;13.068;2023-07-22T03:40:50;1.57;;;1.37;;
4821;SDS011;2425;47.794;13.068;2023-07-22T03:43:18;1.20;;;1.20;;
4821;SDS011;2425;47.794;13.068;2023-07-22T03:45:45;1.93;;;1.70;;
4821;SDS011;2425;47.794;13.068;2023-07-22T03:48:11;1.50;;;1.50;;
4821;SDS011;2425;47.794;13.068;2023-07-22T03:50:41;1.30;;;1.30;;
4821;SDS011;2425;47.794;13.068;2023-07-22T03:53:09;2.73;;;1.70;;
4821;SDS011;2425;47.794;13.068;2023-07-22T03:55:36;2.50;;;1.80;;
4821;SDS011;2425;47.794;13.068;2023-07-22T03:58:04;1.27;;;1.27;;
4821;SDS011;2425;47.794;13.068;2023-07-22T04:00:31;1.47;;;1.47;;
4821;SDS011;2425;47.794;13.068;2023-07-22T04:02:57;1.60;;;1.60;;
4821;SDS011;2425;47.794;13.068;2023-07-22T04:05:24;1.60;;;1.50;;
4821;SDS011;2425;47.794;13.068;2023-07-22T04:07:51;1.70;;;1.60;;
4821;SDS011;2425;47.794;13.068;2023-07-22T04:10:17;1.37;;;1.37;;
4821;SDS011;2425;47.794;13.068;2023-07-22T04:12:44;1.40;;;1.40;;
4821;SDS011;2425;47.794;13.068;2023-07-22T04:15:12;1.40;;;1.40;;
4821;SDS011;2425;47.794;13.068;2023-07-22T04:17:40;1.27;;;1.27;;
4821;SDS011;2425;47.794;13.068;2023-07-22T04:20:07;1.40;;;1.30;;
4821;SDS011;2425;47.794;13.068;2023-07-22T04:22:34;1.47;;;1.37;;
4821;SDS011;2425;47.794;13.068;2023-07-22T04:25:01;1.57;;;1.47;;
4821;SDS011;2425;47.794;13.068;2023-07-22T04:27:29;1.20;;;1.17;;
4821;SDS011;2425;47.794;13.068;2023-07-22T04:29:56;1.40;;;1.40;;
4821;SDS011;2425;47.794;13.068;2023-07-22T04:32:24;1.60;;;1.60;;
4821;SDS011;2425;47.794;13.068;2023-07-22T04:34:51;1.40;;;1.40;;
4821;SDS011;2425;47.794;13.068;2023-07-22T04:37:18;1.20;;;1.20;;
4821;SDS011;2425;47.794;13.068;2023-07-22T04:39:46;1.70;;;1.60;;
4821;SDS011;2425;47.794;13.068;2023-07-22T04:42:14;1.57;;;1.50;;
4821;SDS011;2425;47.794;13.068;2023-07-22T04:44:41;1.60;;;1.50;;
4821;SDS011;2425;47.794;13.068;2023-07-22T04:47:09;1.10;;;1.10;;
4821;SDS011;2425;47.794;13.068;2023-07-22T04:49:37;1.67;;;1.57;;
4821;SDS011;2425;47.794;13.068;2023-07-22T04:52:04;1.80;;;1.70;;
4821;SDS011;2425;47.794;13.068;2023-07-22T04:54:32;1.70;;;1.60;;
4821;SDS011;2425;47.794;13.068;2023-07-22T04:56:59;1.40;;;1.30;;
4821;SDS011;2425;47.794;13.068;2023-07-22T04:59:25;1.40;;;1.40;;
4821;SDS011;2425;47.794;13.068;2023-07-22T05:01:52;1.53;;;1.53;;
4821;SDS011;2425;47.794;13.068;2023-07-22T05:04:19;1.33;;;1.33;;
4821;SDS011;2425;47.794;13.068;2023-07-22T05:06:48;1.60;;;1.50;;
4821;SDS011;2425;47.794;13.068;2023-07-22T05:09:15;1.60;;;1.60;;
4821;SDS011;2425;47.794;13.068;2023-07-22T05:11:41;1.60;;;1.50;;
4821;SDS011;2425;47.794;13.068;2023-07-22T05:14:08;1.13;;;1.13;;
4821;SDS011;2425;47.794;13.068;2023-07-22T05:16:35;1.50;;;1.50;;
4821;SDS011;2425;47.794;13.068;2023-07-22T05:19:02;1.67;;;1.57;;
4821;SDS011;2425;47.794;13.068;2023-07-22T05:21:29;1.90;;;1.80;;
4821;SDS011;2425;47.794;13.068;2023-07-22T05:23:57;1.70;;;1.70;;
4821;SDS011;2425;47.794;13.068;2023-07-22T05:26:24;1.83;;;1.73;;
4821;SDS011;2425;47.794;13.068;2023-07-22T05:28:51;1.70;;;1.60;;
4821;SDS011;2425;47.794;13.068;2023-07-22T05:31:17;1.77;;;1.77;;
4821;SDS011;2425;47.794;13.068;2023-07-22T05:33:44;1.47;;;1.47;;
4821;SDS011;2425;47.794;13.068;2023-07-22T05:36:12;1.60;;;1.50;;
4821;SDS011;2425;47.794;13.068;2023-07-22T05:38:38;1.77;;;1.67;;
4821;SDS011;2425;47.794;13.068;2023-07-22T05:41:06;1.83;;;1.73;;
4821;SDS011;2425;47.794;13.068;2023-07-22T05:43:33;1.40;;;1.40;;
4821;SDS011;2425;47.794;13.068;2023-07-22T05:46:00;1.47;;;1.47;;
4821;SDS011;2425;47.794;13.068;2023-07-22T05:48:26;1.43;;;1.43;;
4821;SDS011;2425;47.794;13.068;2023-07-22T05:50:53;1.43;;;1.43;;
4821;SDS011;2425;47.794;13.068;2023-07-22T05:53:20;2.10;;;2.00;;
4821;SDS011;2425;47.794;13.068;2023-07-22T05:55:46;1.97;;;1.87;;
4821;SDS011;2425;47.794;13.068;2023-07-22T05:58:17;1.30;;;1.30;;
4821;SDS011;2425;47.794;13.068;2023-07-22T06:00:44;1.70;;;1.60;;
4821;SDS011;2425;47.794;13.068;2023-07-22T06:03:11;1.63;;;1.53;;
4821;SDS011;2425;47.794;13.068;2023-07-22T06:05:38;1.53;;;1.43;;
4821;SDS011;2425;47.794;13.068;2023-07-22T06:08:05;1.90;;;1.80;;
4821;SDS011;2425;47.794;13.068;2023-07-22T06:10:31;1.50;;;1.50;;
4821;SDS011;2425;47.794;13.068;2023-07-22T06:12:58;1.42;;;1.42;;
4821;SDS011;2425;47.794;13.068;2023-07-22T06:15:26;1.80;;;1.70;;
4821;SDS011;2425;47.794;13.068;2023-07-22T06:17:53;1.63;;;1.63;;
4821;SDS011;2425;47.794;13.068;2023-07-22T06:20:20;1.70;;;1.70;;
4821;SDS011;2425;47.794;13.068;2023-07-22T06:22:46;1.70;;;1.60;;
4821;SDS011;2425;47.794;13.068;2023-07-22T06:25:13;1.70;;;1.60;;
4821;SDS011;2425;47.794;13.068;2023-07-22T06:27:40;1.73;;;1.63;;
4821;SDS011;2425;47.794;13.068;2023-07-22T06:30:07;1.40;;;1.40;;
4821;SDS011;2425;47.794;13.068;2023-07-22T06:32:36;1.47;;;1.47;;
4821;SDS011;2425;47.794;13.068;2023-07-22T06:35:03;1.30;;;1.30;;
4821;SDS011;2425;47.794;13.068;2023-07-22T06:37:31;1.40;;;1.40;;
4821;SDS011;2425;47.794;13.068;2023-07-22T06:39:58;1.40;;;1.30;;
4821;SDS011;2425;47.794;13.068;2023-07-22T06:42:24;1.70;;;1.60;;
4821;SDS011;2425;47.794;13.068;2023-07-22T06:44:52;2.53;;;1.30;;
4821;SDS011;2425;47.794;13.068;2023-07-22T06:47:19;1.90;;;1.57;;
4821;SDS011;2425;47.794;13.068;2023-07-22T06:49:50;1.37;;;1.27;;
4821;SDS011;2425;47.794;13.068;2023-07-22T06:52:17;1.47;;;1.37;;
4821;SDS011;2425;47.794;13.068;2023-07-22T06:54:43;1.67;;;1.67;;
4821;SDS011;2425;47.794;13.068;2023-07-22T06:57:10;1.40;;;1.37;;
4821;SDS011;2425;47.794;13.068;2023-07-22T06:59:37;1.70;;;1.60;;
4821;SDS011;2425;47.794;13.068;2023-07-22T07:02:04;1.87;;;1.77;;
4821;SDS011;2425;47.794;13.068;2023-07-22T07:04:31;2.20;;;1.93;;
4821;SDS011;2425;47.794;13.068;2023-07-22T07:06:59;2.50;;;2.00;;
4821;SDS011;2425;47.794;13.068;2023-07-22T07:09:26;3.63;;;1.50;;
4821;SDS011;2425;47.794;13.068;2023-07-22T07:11:52;2.20;;;1.57;;
4821;SDS011;2425;47.794;13.068;2023-07-22T07:14:21;2.40;;;1.70;;
4821;SDS011;2425;47.794;13.068;2023-07-22T07:16:48;1.80;;;1.70;;
4821;SDS011;2425;47.794;13.068;2023-07-22T07:19:15;1.90;;;1.70;;
4821;SDS011;2425;47.794;13.068;2023-07-22T07:21:42;1.23;;;1.17;;
4821;SDS011;2425;47.794;13.068;2023-07-22T07:24:10;1.83;;;1.73;;
4821;SDS011;2425;47.794;13.068;2023-07-22T07:26:37;1.87;;;1.77;;
4821;SDS011;2425;47.794;13.068;2023-07-22T07:29:03;1.40;;;1.40;;
4821;SDS011;2425;47.794;13.068;2023-07-22T07:31:30;1.47;;;1.37;;
4821;SDS011;2425;47.794;13.068;2023-07-22T07:33:57;1.57;;;1.57;;
4821;SDS011;2425;47.794;13.068;2023-07-22T07:36:24;1.50;;;1.37;;
4821;SDS011;2425;47.794;13.068;2023-07-22T07:38:50;1.30;;;1.30;;
4821;SDS011;2425;47.794;13.068;2023-07-22T07:41:18;2.30;;;1.33;;
4821;SDS011;2425;47.794;13.068;2023-07-22T07:43:48;1.50;;;1.40;;
4821;SDS011;2425;47.794;13.068;2023-07-22T07:46:15;1.43;;;1.43;;
4821;SDS011;2425;47.794;13.068;2023-07-22T07:48:45;1.83;;;1.73;;
4821;SDS011;2425;47.794;13.068;2023-07-22T07:51:12;1.47;;;1.20;;
4821;SDS011;2425;47.794;13.068;2023-07-22T07:53:39;1.30;;;1.30;;
4821;SDS011;2425;47.794;13.068;2023-07-22T07:56:07;3.87;;;1.70;;
4821;SDS011;2425;47.794;13.068;2023-07-22T07:58:35;1.63;;;1.53;;
4821;SDS011;2425;47.794;13.068;2023-07-22T08:01:03;1.17;;;1.17;;
4821;SDS011;2425;47.794;13.068;2023-07-22T08:03:29;1.30;;;1.20;;
4821;SDS011;2425;47.794;13.068;2023-07-22T08:05:56;1.30;;;1.30;;
4821;SDS011;2425;47.794;13.068;2023-07-22T08:08:23;1.00;;;1.00;;
4821;SDS011;2425;47.794;13.068;2023-07-22T08:10:57;1.90;;;1.80;;
4821;SDS011;2425;47.794;13.068;2023-07-22T08:13:24;1.50;;;1.50;;
4821;SDS011;2425;47.794;13.068;2023-07-22T08:15:52;1.77;;;1.30;;
4821;SDS011;2425;47.794;13.068;2023-07-22T08:18:19;1.57;;;1.30;;
4821;SDS011;2425;47.794;13.068;2023-07-22T08:20:46;1.63;;;1.17;;
4821;SDS011;2425;47.794;13.068;2023-07-22T08:23:13;1.27;;;1.20;;
4821;SDS011;2425;47.794;13.068;2023-07-22T08:25:40;6.27;;;1.27;;
4821;SDS011;2425;47.794;13.068;2023-07-22T08:28:07;2.13;;;1.50;;
4821;SDS011;2425;47.794;13.068;2023-07-22T08:30:34;2.10;;;2.00;;
4821;SDS011;2425;47.794;13.068;2023-07-22T08:33:02;2.07;;;1.97;;
4821;SDS011;2425;47.794;13.068;2023-07-22T08:35:29;2.00;;;1.90;;
4821;SDS011;2425;47.794;13.068;2023-07-22T08:37:55;1.90;;;1.80;;
4821;SDS011;2425;47.794;13.068;2023-07-22T08:40:22;1.97;;;1.87;;
4821;SDS011;2425;47.794;13.068;2023-07-22T08:42:49;1.50;;;1.50;;
4821;SDS011;2425;47.794;13.068;2023-07-22T08:45:16;2.23;;;2.10;;
4821;SDS011;2425;47.794;13.068;2023-07-22T08:47:45;1.87;;;1.77;;
4821;SDS011;2425;47.794;13.068;2023-07-22T08:50:15;1.50;;;1.47;;
4821;SDS011;2425;47.794;13.068;2023-07-22T08:52:45;1.50;;;1.50;;
4821;SDS011;2425;47.794;13.068;2023-07-22T08:55:11;1.43;;;1.43;;
4821;SDS011;2425;47.794;13.068;2023-07-22T08:57:39;1.77;;;1.67;;
4821;SDS011;2425;47.794;13.068;2023-07-22T09:00:06;1.57;;;1.50;;
4821;SDS011;2425;47.794;13.068;2023-07-22T09:02:35;1.50;;;1.40;;
4821;SDS011;2425;47.794;13.068;2023-07-22T09:05:01;1.60;;;1.50;;
4821;SDS011;2425;47.794;13.068;2023-07-22T09:07:30;1.87;;;1.77;;
4821;SDS011;2425;47.794;13.068;2023-07-22T09:09:57;1.40;;;1.30;;
4821;SDS011;2425;47.794;13.068;2023-07-22T09:12:23;1.40;;;1.40;;
4821;SDS011;2425;47.794;13.068;2023-07-22T09:14:51;2.13;;;1.97;;
4821;SDS011;2425;47.794;13.068;2023-07-22T09:17:18;1.97;;;1.80;;
4821;SDS011;2425;47.794;13.068;2023-07-22T09:19:45;1.57;;;1.57;;
4821;SDS011;2425;47.794;13.068;2023-07-22T09:22:12;1.30;;;1.30;;
4821;SDS011;2425;47.794;13.068;2023-07-22T09:24:40;1.83;;;1.73;;
4821;SDS011;2425;47.794;13.068;2023-07-22T09:27:06;1.90;;;1.80;;
4821;SDS011;2425;47.794;13.068;2023-07-22T09:29:33;2.13;;;2.03;;
4821;SDS011;2425;47.794;13.068;2023-07-22T09:32:01;4.93;;;1.80;;
4821;SDS011;2425;47.794;13.068;2023-07-22T09:34:28;1.50;;;1.50;;
4821;SDS011;2425;47.794;13.068;2023-07-22T09:36:55;1.80;;;1.70;;
4821;SDS011;2425;47.794;13.068;2023-07-22T09:39:25;1.53;;;1.53;;
4821;SDS011;2425;47.794;13.068;2023-07-22T09:41:53;2.93;;;1.60;;
4821;SDS011;2425;47.794;13.068;2023-07-22T09:44:20;1.47;;;1.47;;
4821;SDS011;2425;47.794;13.068;2023-07-22T09:46:47;1.50;;;1.50;;
4821;SDS011;2425;47.794;13.068;2023-07-22T09:49:15;1.40;;;1.30;;
4821;SDS011;2425;47.794;13.068;2023-07-22T09:51:43;1.60;;;1.57;;
4821;SDS011;2425;47.794;13.068;2023-07-22T09:54:10;1.60;;;1.47;;
4821;SDS011;2425;47.794;13.068;2023-07-22T09:56:43;1.70;;;1.60;;
4821;SDS011;2425;47.794;13.068;2023-07-22T09:59:12;2.43;;;1.60;;
4821;SDS011;2425;47.794;13.068;2023-07-22T10:01:39;2.20;;;2.10;;
4821;SDS011;2425;47.794;13.068;2023-07-22T10:04:06;2.40;;;2.10;;
4821;SDS011;2425;47.794;13.068;2023-07-22T10:06:33;2.67;;;2.50;;
4821;SDS011;2425;47.794;13.068;2023-07-22T10:09:00;2.50;;;2.30;;
4821;SDS011;2425;47.794;13.068;2023-07-22T10:11:32;2.50;;;2.30;;
4821;SDS011;2425;47.794;13.068;2023-07-22T10:13:58;2.73;;;2.40;;
4821;SDS011;2425;47.794;13.068;2023-07-22T10:16:26;3.20;;;2.27;;
4821;SDS011;2425;47.794;13.068;2023-07-22T10:18:53;2.67;;;2.53;;
4821;SDS011;2425;47.794;13.068;2023-07-22T10:21:20;2.53;;;2.40;;
4821;SDS011;2425;47.794;13.068;2023-07-22T10:23:47;8.67;;;2.63;;
4821;SDS011;2425;47.794;13.068;2023-07-22T10:26:14;4.20;;;2.40;;
4821;SDS011;2425;47.794;13.068;2023-07-22T10:28:43;2.63;;;2.53;;
4821;SDS011;2425;47.794;13.068;2023-07-22T10:31:11;2.57;;;2.13;;
4821;SDS011;2425;47.794;13.068;2023-07-22T10:33:40;2.63;;;2.43;;
4821;SDS011;2425;47.794;13.068;2023-07-22T10:36:07;2.90;;;2.70;;
4821;SDS011;2425;47.794;13.068;2023-07-22T10:38:34;3.17;;;2.97;;
4821;SDS011;2425;47.794;13.068;2023-07-22T10:41:04;7.73;;;2.40;;
4821;SDS011;2425;47.794;13.068;2023-07-22T10:43:38;2.20;;;2.10;;
4821;SDS011;2425;47.794;13.068;2023-07-22T10:46:06;4.03;;;2.67;;
4821;SDS011;2425;47.794;13.068;2023-07-22T10:48:34;5.50;;;2.83;;
4821;SDS011;2425;47.794;13.068;2023-07-22T10:51:06;2.43;;;2.23;;
4821;SDS011;2425;47.794;13.068;2023-07-22T10:53:37;5.97;;;2.50;;
4821;SDS011;2425;47.794;13.068;2023-07-22T10:56:10;2.60;;;2.40;;
4821;SDS011;2425;47.794;13.068;2023-07-22T11:01:31;2.37;;;2.27;;
4821;SDS011;2425;47.794;13.068;2023-07-22T11:04:02;2.93;;;2.37;;
4821;SDS011;2425;47.794;13.068;2023-07-22T11:06:39;2.40;;;2.20;;
4821;SDS011;2425;47.794;13.068;2023-07-22T11:09:06;3.77;;;2.70;;
4821;SDS011;2425;47.794;13.068;2023-07-22T11:11:37;2.00;;;1.90;;
4821;SDS011;2425;47.794;13.068;2023-07-22T11:14:14;2.63;;;2.50;;
4821;SDS011;2425;47.794;13.068;2023-07-22T11:16:41;2.30;;;2.20;;
4821;SDS011;2425;47.794;13.068;2023-07-22T11:19:09;2.27;;;2.17;;
4821;SDS011;2425;47.794;13.068;2023-07-22T11:21:36;2.40;;;2.30;;
4821;SDS011;2425;47.794;13.068;2023-07-22T11:24:04;2.20;;;2.10;;
4821;SDS011;2425;47.794;13.068;2023-07-22T11:26:32;2.63;;;2.53;;
4821;SDS011;2425;47.794;13.068;2023-07-22T11:28:59;3.30;;;2.10;;
4821;SDS011;2425;47.794;13.068;2023-07-22T11:31:30;2.03;;;2.03;;
4821;SDS011;2425;47.794;13.068;2023-07-22T11:33:57;1.73;;;1.70;;
4821;SDS011;2425;47.794;13.068;2023-07-22T11:36:24;2.07;;;1.97;;
4821;SDS011;2425;47.794;13.068;2023-07-22T11:38:51;8.63;;;2.93;;
4821;SDS011;2425;47.794;13.068;2023-07-22T11:41:22;3.77;;;2.53;;
4821;SDS011;2425;47.794;13.068;2023-07-22T11:43:51;3.33;;;3.00;;
4821;SDS011;2425;47.794;13.068;2023-07-22T11:46:17;3.23;;;2.43;;
4821;SDS011;2425;47.794;13.068;2023-07-22T11:48:50;3.33;;;2.83;;
4821;SDS011;2425;47.794;13.068;2023-07-22T11:51:18;2.70;;;2.60;;
4821;SDS011;2425;47.794;13.068;2023-07-22T11:53:46;2.60;;;2.40;;
4821;SDS011;2425;47.794;13.068;2023-07-22T11:56:17;3.33;;;3.03;;
4821;SDS011;2425;47.794;13.068;2023-07-22T11:58:49;3.13;;;2.83;;
4821;SDS011;2425;47.794;13.068;2023-07-22T12:01:16;8.80;;;2.93;;
4821;SDS011;2425;47.794;13.068;2023-07-22T12:03:43;3.80;;;3.50;;
4821;SDS011;2425;47.794;13.068;2023-07-22T12:06:10;3.60;;;3.30;;
4821;SDS011;2425;47.794;13.068;2023-07-22T12:08:42;3.07;;;2.87;;
4821;SDS011;2425;47.794;13.068;2023-07-22T12:11:15;3.80;;;2.67;;
4821;SDS011;2425;47.794;13.068;2023-07-22T12:13:42;2.80;;;2.60;;
4821;SDS011;2425;47.794;13.068;2023-07-22T12:16:12;2.80;;;2.60;;
4821;SDS011;2425;47.794;13.068;2023-07-22T12:18:42;3.40;;;2.90;;
4821;SDS011;2425;47.794;13.068;2023-07-22T12:21:10;5.70;;;3.17;;
4821;SDS011;2425;47.794;13.068;2023-07-22T12:23:37;4.40;;;2.90;;
4821;SDS011;2425;47.794;13.068;2023-07-22T12:26:04;3.07;;;2.80;;
4821;SDS011;2425;47.794;13.068;2023-07-22T12:28:31;2.90;;;2.70;;
4821;SDS011;2425;47.794;13.068;2023-07-22T12:30:58;6.07;;;2.77;;
4821;SDS011;2425;47.794;13.068;2023-07-22T12:33:26;2.80;;;2.60;;
4821;SDS011;2425;47.794;13.068;2023-07-22T12:35:53;2.63;;;2.53;;
4821;SDS011;2425;47.794;13.068;2023-07-22T12:38:20;7.63;;;3.33;;
4821;SDS011;2425;47.794;13.068;2023-07-22T12:40:46;3.30;;;3.00;;
4821;SDS011;2425;47.794;13.068;2023-07-22T12:43:13;3.13;;;2.90;;
4821;SDS011;2425;47.794;13.068;2023-07-22T12:45:40;4.70;;;3.07;;
4821;SDS011;2425;47.794;13.068;2023-07-22T12:48:06;4.90;;;2.87;;
4821;SDS011;2425;47.794;13.068;2023-07-22T12:50:35;4.23;;;2.60;;
4821;SDS011;2425;47.794;13.068;2023-07-22T12:53:02;3.93;;;2.47;;
4821;SDS011;2425;47.794;13.068;2023-07-22T12:55:29;2.93;;;2.73;;
4821;SDS011;2425;47.794;13.068;2023-07-22T12:57:56;3.37;;;2.63;;
4821;SDS011;2425;47.794;13.068;2023-07-22T13:00:22;2.73;;;2.50;;
4821;SDS011;2425;47.794;13.068;2023-07-22T13:02:49;2.60;;;2.50;;
4821;SDS011;2425;47.794;13.068;2023-07-22T13:05:16;2.90;;;2.50;;
4821;SDS011;2425;47.794;13.068;2023-07-22T13:07:44;3.93;;;2.90;;
4821;SDS011;2425;47.794;13.068;2023-07-22T13:10:11;3.87;;;2.63;;
4821;SDS011;2425;47.794;13.068;2023-07-22T13:12:41;3.27;;;2.97;;
4821;SDS011;2425;47.794;13.068;2023-07-22T13:15:09;4.23;;;2.63;;
4821;SDS011;2425;47.794;13.068;2023-07-22T13:17:36;3.63;;;3.17;;
4821;SDS011;2425;47.794;13.068;2023-07-22T13:20:03;3.10;;;2.37;;
4821;SDS011;2425;47.794;13.068;2023-07-22T13:22:32;2.40;;;2.20;;
4821;SDS011;2425;47.794;13.068;2023-07-22T13:25:00;3.43;;;2.50;;
4821;SDS011;2425;47.794;13.068;2023-07-22T13:27:26;7.70;;;2.83;;
4821;SDS011;2425;47.794;13.068;2023-07-22T13:29:53;2.60;;;2.50;;
4821;SDS011;2425;47.794;13.068;2023-07-22T13:32:20;3.77;;;3.10;;
4821;SDS011;2425;47.794;13.068;2023-07-22T13:34:47;2.87;;;2.67;;
4821;SDS011;2425;47.794;13.068;2023-07-22T13:37:14;2.93;;;2.20;;
4821;SDS011;2425;47.794;13.068;2023-07-22T13:39:41;2.50;;;2.33;;
4821;SDS011;2425;47.794;13.068;2023-07-22T13:42:09;2.70;;;2.50;;
4821;SDS011;2425;47.794;13.068;2023-07-22T13:44:36;2.07;;;1.97;;
4821;SDS011;2425;47.794;13.068;2023-07-22T13:47:03;2.53;;;2.33;;
4821;SDS011;2425;47.794;13.068;2023-07-22T13:49:30;2.60;;;2.40;;
4821;SDS011;2425;47.794;13.068;2023-07-22T13:51:56;2.20;;;2.10;;
4821;SDS011;2425;47.794;13.068;2023-07-22T13:54:23;2.47;;;2.37;;
4821;SDS011;2425;47.794;13.068;2023-07-22T13:56:50;2.53;;;2.40;;
4821;SDS011;2425;47.794;13.068;2023-07-22T13:59:18;2.67;;;2.50;;
4821;SDS011;2425;47.794;13.068;2023-07-22T14:01:45;2.33;;;1.97;;
4821;SDS011;2425;47.794;13.068;2023-07-22T14:04:11;2.30;;;2.20;;
4821;SDS011;2425;47.794;13.068;2023-07-22T14:06:38;3.20;;;2.00;;
4821;SDS011;2425;47.794;13.068;2023-07-22T14:09:05;2.40;;;2.30;;
4821;SDS011;2425;47.794;13.068;2023-07-22T14:11:31;2.17;;;2.07;;
4821;SDS011;2425;47.794;13.068;2023-07-22T14:13:58;2.47;;;2.37;;
4821;SDS011;2425;47.794;13.068;2023-07-22T14:16:26;2.73;;;2.33;;
4821;SDS011;2425;47.794;13.068;2023-07-22T14:18:53;2.13;;;2.03;;
4821;SDS011;2425;47.794;13.068;2023-07-22T14:21:20;3.60;;;1.87;;
4821;SDS011;2425;47.794;13.068;2023-07-22T14:23:47;2.03;;;1.93;;
4821;SDS011;2425;47.794;13.068;2023-07-22T14:26:13;2.20;;;2.10;;
4821;SDS011;2425;47.794;13.068;2023-07-22T14:28:40;1.87;;;1.77;;
4821;SDS011;2425;47.794;13.068;2023-07-22T14:31:07;1.90;;;1.80;;
4821;SDS011;2425;47.794;13.068;2023-07-22T14:33:35;2.23;;;2.13;;
4821;SDS011;2425;47.794;13.068;2023-07-22T14:36:02;3.80;;;2.00;;
4821;SDS011;2425;47.794;13.068;2023-07-22T14:38:28;2.10;;;2.00;;
4821;SDS011;2425;47.794;13.068;2023-07-22T14:40:55;2.30;;;2.20;;
4821;SDS011;2425;47.794;13.068;2023-07-22T14:43:22;2.07;;;1.97;;
4821;SDS011;2425;47.794;13.068;2023-07-22T14:45:49;2.03;;;1.93;;
4821;SDS011;2425;47.794;13.068;2023-07-22T14:48:16;1.73;;;1.63;;
4821;SDS011;2425;47.794;13.068;2023-07-22T14:50:44;3.10;;;2.27;;
4821;SDS011;2425;47.794;13.068;2023-07-22T14:53:10;2.00;;;1.90;;
4821;SDS011;2425;47.794;13.068;2023-07-22T14:55:37;2.30;;;2.17;;
4821;SDS011;2425;47.794;13.068;2023-07-22T14:58:04;2.47;;;2.27;;
4821;SDS011;2425;47.794;13.068;2023-07-22T15:00:31;2.10;;;2.00;;
4821;SDS011;2425;47.794;13.068;2023-07-22T15:02:58;2.20;;;2.10;;